sensor_id;sensor_type;location;lat;lon;timestamp;temperature;humidity
8043;DHT22;4064;48.132;11.366;2023-08-24T00:01:16;22.60;99.90
8043;DHT22;4064;48.132;11.366;2023-08-24T00:03:45;22.60;99.90
8043;DHT22;4064;48.132;11.366;2023-08-24T00:06:14;22.50;99.90
8043;DHT22;4064;48.132;11.366;2023-08-24T00:08:40;22.50;99.90
8043;DHT22;4064;48.132;11.366;2023-08-24T00:11:06;22.50;99.90
8043;DHT22;4064;48.132;11.366;2023-08-24T00:13:33;22.40;99.90
8043;DHT22;4064;48.132;11.366;2023-08-24T00:15:58;22.40;99.90
8043;DHT22;4064;48.132;11.366;2023-08-24T00:18:24;22.40;99.90
8043;DHT22;4064;48.132;11.366;2023-08-24T00:20:50;22.40;99.90
8043;DHT22;4064;48.132;11.366;2023-08-24T00:23:16;22.40;99.90
8043;DHT22;4064;48.132;11.366;2023-08-24T00:25:42;22.30;99.90
8043;DHT22;4064;48.132;11.366;2023-08-24T00:28:08;22.20;99.90
8043;DHT22;4064;48.132;11.366;2023-08-24T00:30:33;22.20;99.90
8043;DHT22;4064;48.132;11.366;2023-08-24T00:32:59;22.20;99.90
8043;DHT22;4064;48.132;11.366;2023-08-24T00:35:25;22.20;99.90
8043;DHT22;4064;48.132;11.366;2023-08-24T00:37:51;22.20;99.90
8043;DHT22;4064;48.132;11.366;2023-08-24T00:40:16;22.10;99.90
8043;DHT22;4064;48.132;11.366;2023-08-24T00:42:45;22.10;99.90
8043;DHT22;4064;48.132;11.366;2023-08-24T00:45:14;22.10;99.90
8043;DHT22;4064;48.132;11.366;2023-08-24T00:47:44;22.10;99.90
8043;DHT22;4064;48.132;11.366;2023-08-24T00:50:11;22.00;99.90
8043;DHT22;4064;48.132;11.366;2023-08-24T00:52:39;21.90;99.90
8043;DHT22;4064;48.132;11.366;2023-08-24T00:55:06;21.90;99.90
8043;DHT22;4064;48.132;11.366;2023-08-24T00:57:33;21.90;99.90
8043;DHT22;4064;48.132;11.366;2023-08-24T01:00:04;21.90;99.90
8043;DHT22;4064;48.132;11.366;2023-08-24T01:02:37;21.90;99.90
8043;DHT22;4064;48.132;11.366;2023-08-24T01:05:02;21.90;99.90
8043;DHT22;4064;48.132;11.366;2023-08-24T01:07:30;22.00;99.90
8043;DHT22;4064;48.132;11.366;2023-08-24T01:09:56;21.90;99.90
8043;DHT22;4064;48.132;11.366;2023-08-24T01:17:23;21.80;99.90
8043;DHT22;4064;48.132;11.366;2023-08-24T01:19:49;21.80;99.90
8043;DHT22;4064;48.132;11.366;2023-08-24T01:22:20;21.70;99.90
8043;DHT22;4064;48.132;11.366;2023-08-24T01:27:34;21.60;99.90
8043;DHT22;4064;48.132;11.366;2023-08-24T01:30:04;21.60;99.90
8043;DHT22;4064;48.132;11.366;2023-08-24T01:32:31;21.60;99.90
8043;DHT22;4064;48.132;11.366;2023-08-24T01:34:59;21.60;99.90
8043;DHT22;4064;48.132;11.366;2023-08-24T01:37:25;21.50;99.90
8043;DHT22;4064;48.132;11.366;2023-08-24T01:42:27;21.60;99.90
8043;DHT22;4064;48.132;11.366;2023-08-24T01:44:56;21.60;99.90
8043;DHT22;4064;48.132;11.366;2023-08-24T01:47:25;21.40;99.90
8043;DHT22;4064;48.132;11.366;2023-08-24T01:49:51;21.40;99.90
8043;DHT22;4064;48.132;11.366;2023-08-24T01:52:17;21.50;99.90
8043;DHT22;4064;48.132;11.366;2023-08-24T01:54:43;21.40;99.90
8043;DHT22;4064;48.132;11.366;2023-08-24T01:57:10;21.40;99.90
8043;DHT22;4064;48.132;11.366;2023-08-24T01:59:35;21.40;99.90
8043;DHT22;4064;48.132;11.366;2023-08-24T02:02:01;21.40;99.90
8043;DHT22;4064;48.132;11.366;2023-08-24T02:04:27;21.40;99.90
8043;DHT22;4064;48.132;11.366;2023-08-24T02:06:52;21.40;99.90
8043;DHT22;4064;48.132;11.366;2023-08-24T02:09:18;21.40;99.90
8043;DHT22;4064;48.132;11.366;2023-08-24T02:11:43;21.40;99.90
8043;DHT22;4064;48.132;11.366;2023-08-24T02:14:09;21.30;99.90
8043;DHT22;4064;48.132;11.366;2023-08-24T02:16:36;21.20;99.90
8043;DHT22;4064;48.132;11.366;2023-08-24T02:19:01;21.30;99.90
8043;DHT22;4064;48.132;11.366;2023-08-24T02:21:27;21.20;99.90
8043;DHT22;4064;48.132;11.366;2023-08-24T02:23:52;21.20;99.90
8043;DHT22;4064;48.132;11.366;2023-08-24T02:26:18;21.20;99.90
8043;DHT22;4064;48.132;11.366;2023-08-24T02:28:44;21.20;99.90
8043;DHT22;4064;48.132;11.366;2023-08-24T02:31:09;21.10;99.90
8043;DHT22;4064;48.132;11.366;2023-08-24T02:33:35;21.10;99.90
8043;DHT22;4064;48.132;11.366;2023-08-24T02:36:01;21.10;99.90
8043;DHT22;4064;48.132;11.366;2023-08-24T02:38:27;21.00;99.90
8043;DHT22;4064;48.132;11.366;2023-08-24T02:41:06;21.10;99.90
8043;DHT22;4064;48.132;11.366;2023-08-24T02:43:33;21.20;99.90
8043;DHT22;4064;48.132;11.366;2023-08-24T02:46:03;21.10;99.90
8043;DHT22;4064;48.132;11.366;2023-08-24T02:48:30;21.00;99.90
8043;DHT22;4064;48.132;11.366;2023-08-24T02:50:57;21.10;99.90
8043;DHT22;4064;48.132;11.366;2023-08-24T02:53:24;21.10;99.90
8043;DHT22;4064;48.132;11.366;2023-08-24T02:55:49;20.90;99.90
8043;DHT22;4064;48.132;11.366;2023-08-24T02:58:15;20.90;99.90
8043;DHT22;4064;48.132;11.366;2023-08-24T03:00:41;21.00;99.90
8043;DHT22;4064;48.132;11.366;2023-08-24T03:03:06;21.00;99.90
8043;DHT22;4064;48.132;11.366;2023-08-24T03:05:32;21.00;99.90
8043;DHT22;4064;48.132;11.366;2023-08-24T03:07:58;20.90;99.90
8043;DHT22;4064;48.132;11.366;2023-08-24T03:10:24;20.80;99.90
8043;DHT22;4064;48.132;11.366;2023-08-24T03:12:50;20.80;99.90
8043;DHT22;4064;48.132;11.366;2023-08-24T03:15:16;20.80;99.90
8043;DHT22;4064;48.132;11.366;2023-08-24T03:17:41;20.80;99.90
8043;DHT22;4064;48.132;11.366;2023-08-24T03:20:08;20.70;99.90
8043;DHT22;4064;48.132;11.366;2023-08-24T03:22:36;20.70;99.90
8043;DHT22;4064;48.132;11.366;2023-08-24T03:25:02;20.80;99.90
8043;DHT22;4064;48.132;11.366;2023-08-24T03:27:28;20.90;99.90
8043;DHT22;4064;48.132;11.366;2023-08-24T03:29:54;20.80;99.90
8043;DHT22;4064;48.132;11.366;2023-08-24T03:32:19;20.60;99.90
8043;DHT22;4064;48.132;11.366;2023-08-24T03:34:45;20.40;99.90
8043;DHT22;4064;48.132;11.366;2023-08-24T03:37:10;20.50;99.90
8043;DHT22;4064;48.132;11.366;2023-08-24T03:39:40;20.60;99.90
8043;DHT22;4064;48.132;11.366;2023-08-24T03:42:06;20.70;99.90
8043;DHT22;4064;48.132;11.366;2023-08-24T03:44:32;20.60;99.90
8043;DHT22;4064;48.132;11.366;2023-08-24T03:46:58;20.60;99.90
8043;DHT22;4064;48.132;11.366;2023-08-24T03:49:23;20.60;99.90
8043;DHT22;4064;48.132;11.366;2023-08-24T03:51:49;20.60;99.90
8043;DHT22;4064;48.132;11.366;2023-08-24T03:54:14;20.50;99.90
8043;DHT22;4064;48.132;11.366;2023-08-24T03:56:40;20.50;99.90
8043;DHT22;4064;48.132;11.366;2023-08-24T03:59:05;20.50;99.90
8043;DHT22;4064;48.132;11.366;2023-08-24T04:01:31;20.50;99.90
8043;DHT22;4064;48.132;11.366;2023-08-24T04:03:57;20.60;99.90
8043;DHT22;4064;48.132;11.366;2023-08-24T04:06:23;20.50;99.90
8043;DHT22;4064;48.132;11.366;2023-08-24T04:08:49;20.50;99.90
8043;DHT22;4064;48.132;11.366;2023-08-24T04:11:14;20.50;99.90
8043;DHT22;4064;48.132;11.366;2023-08-24T04:13:40;20.40;99.90
8043;DHT22;4064;48.132;11.366;2023-08-24T04:16:06;20.40;99.90
8043;DHT22;4064;48.132;11.366;2023-08-24T04:18:31;20.50;99.90
8043;DHT22;4064;48.132;11.366;2023-08-24T04:20:57;20.60;99.90
8043;DHT22;4064;48.132;11.366;2023-08-24T04:23:26;20.50;99.90
8043;DHT22;4064;48.132;11.366;2023-08-24T04:25:53;20.40;99.90
8043;DHT22;4064;48.132;11.366;2023-08-24T04:28:19;20.40;99.90
8043;DHT22;4064;48.132;11.366;2023-08-24T04:30:55;20.50;99.90
8043;DHT22;4064;48.132;11.366;2023-08-24T04:33:23;20.50;99.90
8043;DHT22;4064;48.132;11.366;2023-08-24T04:35:49;20.40;99.90
8043;DHT22;4064;48.132;11.366;2023-08-24T04:38:16;20.30;99.90
8043;DHT22;4064;48.132;11.366;2023-08-24T04:43:15;20.30;99.90
8043;DHT22;4064;48.132;11.366;2023-08-24T04:45:41;20.30;99.90
8043;DHT22;4064;48.132;11.366;2023-08-24T04:48:06;20.20;99.90
8043;DHT22;4064;48.132;11.366;2023-08-24T04:50:32;20.30;99.90
8043;DHT22;4064;48.132;11.366;2023-08-24T04:52:57;20.40;99.90
8043;DHT22;4064;48.132;11.366;2023-08-24T04:55:23;20.40;99.90
8043;DHT22;4064;48.132;11.366;2023-08-24T04:57:49;20.40;99.90
8043;DHT22;4064;48.132;11.366;2023-08-24T05:00:15;20.40;99.90
8043;DHT22;4064;48.132;11.366;2023-08-24T05:02:42;20.60;99.90
8043;DHT22;4064;48.132;11.366;2023-08-24T05:05:08;20.50;99.90
8043;DHT22;4064;48.132;11.366;2023-08-24T05:07:37;20.60;99.90
8043;DHT22;4064;48.132;11.366;2023-08-24T05:10:03;20.70;99.90
8043;DHT22;4064;48.132;11.366;2023-08-24T05:12:29;20.60;99.90
8043;DHT22;4064;48.132;11.366;2023-08-24T05:14:55;20.50;99.90
8043;DHT22;4064;48.132;11.366;2023-08-24T05:17:20;20.70;99.90
8043;DHT22;4064;48.132;11.366;2023-08-24T05:19:51;20.90;99.90
8043;DHT22;4064;48.132;11.366;2023-08-24T05:22:16;21.10;99.90
8043;DHT22;4064;48.132;11.366;2023-08-24T05:24:42;21.30;99.90
8043;DHT22;4064;48.132;11.366;2023-08-24T05:27:07;21.80;99.90
8043;DHT22;4064;48.132;11.366;2023-08-24T05:29:33;22.10;99.90
8043;DHT22;4064;48.132;11.366;2023-08-24T05:31:59;22.00;99.90
8043;DHT22;4064;48.132;11.366;2023-08-24T05:34:24;22.10;99.90
8043;DHT22;4064;48.132;11.366;2023-08-24T05:36:50;22.10;99.90
8043;DHT22;4064;48.132;11.366;2023-08-24T05:39:16;22.10;99.90
8043;DHT22;4064;48.132;11.366;2023-08-24T05:41:42;22.20;99.90
8043;DHT22;4064;48.132;11.366;2023-08-24T05:44:07;22.70;99.90
8043;DHT22;4064;48.132;11.366;2023-08-24T05:46:33;22.60;99.90
8043;DHT22;4064;48.132;11.366;2023-08-24T05:48:59;22.40;99.90
8043;DHT22;4064;48.132;11.366;2023-08-24T05:51:25;22.30;99.90
8043;DHT22;4064;48.132;11.366;2023-08-24T05:53:50;22.20;99.90
8043;DHT22;4064;48.132;11.366;2023-08-24T05:56:21;22.20;99.90
8043;DHT22;4064;48.132;11.366;2023-08-24T05:58:47;22.00;99.90
8043;DHT22;4064;48.132;11.366;2023-08-24T06:01:13;22.20;99.90
8043;DHT22;4064;48.132;11.366;2023-08-24T06:03:38;22.70;99.90
8043;DHT22;4064;48.132;11.366;2023-08-24T06:06:04;23.20;99.90
8043;DHT22;4064;48.132;11.366;2023-08-24T06:08:30;23.80;99.90
8043;DHT22;4064;48.132;11.366;2023-08-24T06:10:57;24.50;99.90
8043;DHT22;4064;48.132;11.366;2023-08-24T06:13:23;24.60;99.90
8043;DHT22;4064;48.132;11.366;2023-08-24T06:15:48;24.80;99.90
8043;DHT22;4064;48.132;11.366;2023-08-24T06:18:14;24.80;99.90
8043;DHT22;4064;48.132;11.366;2023-08-24T06:20:41;24.70;99.90
8043;DHT22;4064;48.132;11.366;2023-08-24T06:23:06;24.90;99.90
8043;DHT22;4064;48.132;11.366;2023-08-24T06:25:33;24.90;99.90
8043;DHT22;4064;48.132;11.366;2023-08-24T06:27:59;24.90;99.90
8043;DHT22;4064;48.132;11.366;2023-08-24T06:30:27;25.50;99.90
8043;DHT22;4064;48.132;11.366;2023-08-24T06:32:52;25.20;99.90
8043;DHT22;4064;48.132;11.366;2023-08-24T06:35:18;25.10;99.90
8043;DHT22;4064;48.132;11.366;2023-08-24T06:37:43;25.20;99.90
8043;DHT22;4064;48.132;11.366;2023-08-24T06:40:09;25.60;99.90
8043;DHT22;4064;48.132;11.366;2023-08-24T06:42:36;25.90;99.90
8043;DHT22;4064;48.132;11.366;2023-08-24T06:45:01;25.70;99.90
8043;DHT22;4064;48.132;11.366;2023-08-24T06:47:27;25.40;99.90
8043;DHT22;4064;48.132;11.366;2023-08-24T06:49:52;25.70;99.90
8043;DHT22;4064;48.132;11.366;2023-08-24T06:52:18;25.60;99.90
8043;DHT22;4064;48.132;11.366;2023-08-24T06:54:44;26.20;99.90
8043;DHT22;4064;48.132;11.366;2023-08-24T06:57:10;26.30;99.90
8043;DHT22;4064;48.132;11.366;2023-08-24T06:59:35;26.00;99.90
8043;DHT22;4064;48.132;11.366;2023-08-24T07:02:01;25.80;99.90
8043;DHT22;4064;48.132;11.366;2023-08-24T07:04:27;26.60;99.90
8043;DHT22;4064;48.132;11.366;2023-08-24T07:06:53;26.70;99.90
8043;DHT22;4064;48.132;11.366;2023-08-24T07:09:19;26.80;99.90
8043;DHT22;4064;48.132;11.366;2023-08-24T07:11:44;27.00;99.90
8043;DHT22;4064;48.132;11.366;2023-08-24T07:14:10;27.00;99.90
8043;DHT22;4064;48.132;11.366;2023-08-24T07:16:36;26.70;99.90
8043;DHT22;4064;48.132;11.366;2023-08-24T07:19:01;26.70;99.90
8043;DHT22;4064;48.132;11.366;2023-08-24T07:21:27;27.30;99.90
8043;DHT22;4064;48.132;11.366;2023-08-24T07:23:53;27.60;99.90
8043;DHT22;4064;48.132;11.366;2023-08-24T07:26:19;28.00;99.90
8043;DHT22;4064;48.132;11.366;2023-08-24T07:28:44;28.30;99.90
8043;DHT22;4064;48.132;11.366;2023-08-24T07:31:10;28.60;99.90
8043;DHT22;4064;48.132;11.366;2023-08-24T07:33:37;28.80;99.90
8043;DHT22;4064;48.132;11.366;2023-08-24T07:36:06;28.50;99.90
8043;DHT22;4064;48.132;11.366;2023-08-24T07:38:32;28.40;99.90
8043;DHT22;4064;48.132;11.366;2023-08-24T07:40:58;28.80;99.90
8043;DHT22;4064;48.132;11.366;2023-08-24T07:43:24;29.20;99.90
8043;DHT22;4064;48.132;11.366;2023-08-24T07:45:50;29.10;99.90
8043;DHT22;4064;48.132;11.366;2023-08-24T07:48:15;29.20;99.90
8043;DHT22;4064;48.132;11.366;2023-08-24T07:50:41;29.20;99.90
8043;DHT22;4064;48.132;11.366;2023-08-24T07:53:07;29.50;99.90
8043;DHT22;4064;48.132;11.366;2023-08-24T07:55:32;29.40;99.90
8043;DHT22;4064;48.132;11.366;2023-08-24T07:57:58;29.50;99.90
8043;DHT22;4064;48.132;11.366;2023-08-24T08:00:23;29.30;99.90
8043;DHT22;4064;48.132;11.366;2023-08-24T08:02:50;29.20;99.90
8043;DHT22;4064;48.132;11.366;2023-08-24T08:05:17;29.60;99.90
8043;DHT22;4064;48.132;11.366;2023-08-24T08:07:43;29.90;99.50
8043;DHT22;4064;48.132;11.366;2023-08-24T08:10:09;30.20;99.40
8043;DHT22;4064;48.132;11.366;2023-08-24T08:12:35;30.20;98.00
8043;DHT22;4064;48.132;11.366;2023-08-24T08:15:01;30.80;97.50
8043;DHT22;4064;48.132;11.366;2023-08-24T08:17:27;31.00;96.60
8043;DHT22;4064;48.132;11.366;2023-08-24T08:19:57;31.10;96.40
8043;DHT22;4064;48.132;11.366;2023-08-24T08:22:23;31.00;96.20
8043;DHT22;4064;48.132;11.366;2023-08-24T08:24:48;31.60;95.70
8043;DHT22;4064;48.132;11.366;2023-08-24T08:27:15;31.70;93.90
8043;DHT22;4064;48.132;11.366;2023-08-24T08:29:41;31.40;94.70
8043;DHT22;4064;48.132;11.366;2023-08-24T08:32:06;31.30;94.20
8043;DHT22;4064;48.132;11.366;2023-08-24T08:34:33;31.50;93.90
8043;DHT22;4064;48.132;11.366;2023-08-24T08:36:58;31.80;93.20
8043;DHT22;4064;48.132;11.366;2023-08-24T08:39:24;32.30;92.50
8043;DHT22;4064;48.132;11.366;2023-08-24T08:41:50;32.50;92.30
8043;DHT22;4064;48.132;11.366;2023-08-24T08:44:16;32.60;91.20
8043;DHT22;4064;48.132;11.366;2023-08-24T08:46:42;32.50;91.20
8043;DHT22;4064;48.132;11.366;2023-08-24T08:49:09;32.70;90.30
8043;DHT22;4064;48.132;11.366;2023-08-24T08:51:38;33.00;87.00
8043;DHT22;4064;48.132;11.366;2023-08-24T08:54:07;33.10;86.10
8043;DHT22;4064;48.132;11.366;2023-08-24T08:56:33;33.10;85.90
8043;DHT22;4064;48.132;11.366;2023-08-24T08:58:59;33.10;85.10
8043;DHT22;4064;48.132;11.366;2023-08-24T09:01:26;32.50;86.40
8043;DHT22;4064;48.132;11.366;2023-08-24T09:03:53;32.70;86.60
8043;DHT22;4064;48.132;11.366;2023-08-24T09:06:19;32.60;87.90
8043;DHT22;4064;48.132;11.366;2023-08-24T09:08:45;33.10;86.70
8043;DHT22;4064;48.132;11.366;2023-08-24T09:11:11;33.60;86.00
8043;DHT22;4064;48.132;11.366;2023-08-24T09:13:36;33.80;82.30
8043;DHT22;4064;48.132;11.366;2023-08-24T09:16:06;34.10;79.10
8043;DHT22;4064;48.132;11.366;2023-08-24T09:18:39;34.20;80.20
8043;DHT22;4064;48.132;11.366;2023-08-24T09:21:12;34.60;78.20
8043;DHT22;4064;48.132;11.366;2023-08-24T09:23:53;34.10;77.30
8043;DHT22;4064;48.132;11.366;2023-08-24T09:26:32;34.10;78.10
8043;DHT22;4064;48.132;11.366;2023-08-24T09:28:59;33.90;76.40
8043;DHT22;4064;48.132;11.366;2023-08-24T09:31:38;33.80;76.40
8043;DHT22;4064;48.132;11.366;2023-08-24T09:34:04;33.80;75.40
8043;DHT22;4064;48.132;11.366;2023-08-24T09:36:37;33.20;76.90
8043;DHT22;4064;48.132;11.366;2023-08-24T09:39:04;33.90;74.30
8043;DHT22;4064;48.132;11.366;2023-08-24T09:41:39;33.90;73.90
8043;DHT22;4064;48.132;11.366;2023-08-24T09:44:13;33.50;73.70
8043;DHT22;4064;48.132;11.366;2023-08-24T09:46:40;33.20;72.50
8043;DHT22;4064;48.132;11.366;2023-08-24T09:49:10;33.70;73.80
8043;DHT22;4064;48.132;11.366;2023-08-24T09:51:38;34.10;70.40
8043;DHT22;4064;48.132;11.366;2023-08-24T09:54:05;34.50;71.90
8043;DHT22;4064;48.132;11.366;2023-08-24T09:56:35;34.30;71.90
8043;DHT22;4064;48.132;11.366;2023-08-24T09:59:23;33.90;71.50
8043;DHT22;4064;48.132;11.366;2023-08-24T10:01:51;34.50;68.60
8043;DHT22;4064;48.132;11.366;2023-08-24T10:04:29;34.50;65.80
8043;DHT22;4064;48.132;11.366;2023-08-24T10:07:06;34.60;68.00
8043;DHT22;4064;48.132;11.366;2023-08-24T10:09:44;34.10;68.30
8043;DHT22;4064;48.132;11.366;2023-08-24T10:12:11;33.30;71.10
8043;DHT22;4064;48.132;11.366;2023-08-24T10:15:01;33.60;71.60
8043;DHT22;4064;48.132;11.366;2023-08-24T10:17:32;33.80;70.40
8043;DHT22;4064;48.132;11.366;2023-08-24T10:20:00;34.30;68.20
8043;DHT22;4064;48.132;11.366;2023-08-24T10:22:35;34.30;71.30
8043;DHT22;4064;48.132;11.366;2023-08-24T10:25:01;34.70;68.40
8043;DHT22;4064;48.132;11.366;2023-08-24T10:27:28;34.30;69.30
8043;DHT22;4064;48.132;11.366;2023-08-24T10:29:55;34.70;68.80
8043;DHT22;4064;48.132;11.366;2023-08-24T10:32:22;34.90;65.70
8043;DHT22;4064;48.132;11.366;2023-08-24T10:34:49;35.10;64.70
8043;DHT22;4064;48.132;11.366;2023-08-24T10:37:15;34.90;65.60
8043;DHT22;4064;48.132;11.366;2023-08-24T10:39:45;34.90;65.20
8043;DHT22;4064;48.132;11.366;2023-08-24T10:42:12;34.50;65.20
8043;DHT22;4064;48.132;11.366;2023-08-24T10:44:39;34.90;65.00
8043;DHT22;4064;48.132;11.366;2023-08-24T10:47:12;35.20;64.70
8043;DHT22;4064;48.132;11.366;2023-08-24T10:49:43;35.40;62.60
8043;DHT22;4064;48.132;11.366;2023-08-24T10:52:23;35.20;61.10
8043;DHT22;4064;48.132;11.366;2023-08-24T10:54:52;35.00;61.40
8043;DHT22;4064;48.132;11.366;2023-08-24T11:00:04;35.10;64.70
8043;DHT22;4064;48.132;11.366;2023-08-24T11:02:49;35.30;62.70
8043;DHT22;4064;48.132;11.366;2023-08-24T11:05:21;35.30;63.80
8043;DHT22;4064;48.132;11.366;2023-08-24T11:07:58;35.30;60.20
8043;DHT22;4064;48.132;11.366;2023-08-24T11:10:35;35.30;58.40
8043;DHT22;4064;48.132;11.366;2023-08-24T11:13:16;35.40;59.90
8043;DHT22;4064;48.132;11.366;2023-08-24T11:15:44;35.10;58.50
8043;DHT22;4064;48.132;11.366;2023-08-24T11:23:10;35.40;58.30
8043;DHT22;4064;48.132;11.366;2023-08-24T11:25:36;35.60;58.50
8043;DHT22;4064;48.132;11.366;2023-08-24T11:28:03;35.60;57.80
8043;DHT22;4064;48.132;11.366;2023-08-24T11:30:31;35.70;57.50
8043;DHT22;4064;48.132;11.366;2023-08-24T11:32:57;35.80;55.10
8043;DHT22;4064;48.132;11.366;2023-08-24T11:35:22;35.80;55.40
8043;DHT22;4064;48.132;11.366;2023-08-24T11:38:06;36.10;52.90
8043;DHT22;4064;48.132;11.366;2023-08-24T11:40:32;35.80;54.20
8043;DHT22;4064;48.132;11.366;2023-08-24T11:42:58;36.00;54.10
8043;DHT22;4064;48.132;11.366;2023-08-24T11:45:24;35.80;49.50
8043;DHT22;4064;48.132;11.366;2023-08-24T11:47:55;36.00;51.60
8043;DHT22;4064;48.132;11.366;2023-08-24T11:50:23;35.70;51.30
8043;DHT22;4064;48.132;11.366;2023-08-24T11:52:49;35.80;52.10
8043;DHT22;4064;48.132;11.366;2023-08-24T11:55:14;35.60;52.40
8043;DHT22;4064;48.132;11.366;2023-08-24T11:57:42;36.10;53.00
8043;DHT22;4064;48.132;11.366;2023-08-24T12:00:08;35.70;51.70
8043;DHT22;4064;48.132;11.366;2023-08-24T12:02:34;35.50;52.80
8043;DHT22;4064;48.132;11.366;2023-08-24T12:05:01;35.90;52.00
8043;DHT22;4064;48.132;11.366;2023-08-24T12:07:31;36.20;51.20
8043;DHT22;4064;48.132;11.366;2023-08-24T12:10:03;36.50;51.90
8043;DHT22;4064;48.132;11.366;2023-08-24T12:12:29;36.70;51.00
8043;DHT22;4064;48.132;11.366;2023-08-24T12:14:55;36.50;50.20
8043;DHT22;4064;48.132;11.366;2023-08-24T12:17:23;36.80;50.30
8043;DHT22;4064;48.132;11.366;2023-08-24T12:30:11;37.00;46.90
8043;DHT22;4064;48.132;11.366;2023-08-24T12:32:44;36.80;47.80
8043;DHT22;4064;48.132;11.366;2023-08-24T12:35:10;36.90;47.70
8043;DHT22;4064;48.132;11.366;2023-08-24T12:37:36;37.00;46.40
8043;DHT22;4064;48.132;11.366;2023-08-24T12:40:06;37.20;47.90
8043;DHT22;4064;48.132;11.366;2023-08-24T12:42:32;36.60;47.30
8043;DHT22;4064;48.132;11.366;2023-08-24T12:44:57;36.50;49.00
8043;DHT22;4064;48.132;11.366;2023-08-24T12:47:23;35.90;48.40
8043;DHT22;4064;48.132;11.366;2023-08-24T12:49:49;36.60;49.30
8043;DHT22;4064;48.132;11.366;2023-08-24T12:52:16;37.10;47.10
8043;DHT22;4064;48.132;11.366;2023-08-24T12:54:42;37.10;46.20
8043;DHT22;4064;48.132;11.366;2023-08-24T12:57:08;37.60;46.70
8043;DHT22;4064;48.132;11.366;2023-08-24T12:59:34;37.90;45.00
8043;DHT22;4064;48.132;11.366;2023-08-24T13:01:59;37.50;46.10
8043;DHT22;4064;48.132;11.366;2023-08-24T13:04:26;36.90;48.40
8043;DHT22;4064;48.132;11.366;2023-08-24T13:06:53;37.40;48.80
8043;DHT22;4064;48.132;11.366;2023-08-24T13:09:19;37.90;47.70
8043;DHT22;4064;48.132;11.366;2023-08-24T13:11:44;37.70;46.00
8043;DHT22;4064;48.132;11.366;2023-08-24T13:14:10;37.50;45.10
8043;DHT22;4064;48.132;11.366;2023-08-24T13:16:36;36.90;46.60
8043;DHT22;4064;48.132;11.366;2023-08-24T13:19:01;37.50;45.50
8043;DHT22;4064;48.132;11.366;2023-08-24T13:21:27;37.50;45.90
8043;DHT22;4064;48.132;11.366;2023-08-24T13:23:53;37.20;46.30
8043;DHT22;4064;48.132;11.366;2023-08-24T13:26:22;36.60;45.90
8043;DHT22;4064;48.132;11.366;2023-08-24T13:28:51;36.50;47.20
8043;DHT22;4064;48.132;11.366;2023-08-24T13:31:24;36.70;47.20
8043;DHT22;4064;48.132;11.366;2023-08-24T13:33:50;36.90;46.60
8043;DHT22;4064;48.132;11.366;2023-08-24T13:36:16;36.90;47.50
8043;DHT22;4064;48.132;11.366;2023-08-24T13:38:43;36.70;48.00
8043;DHT22;4064;48.132;11.366;2023-08-24T13:41:09;37.00;47.50
8043;DHT22;4064;48.132;11.366;2023-08-24T13:43:35;37.20;46.70
8043;DHT22;4064;48.132;11.366;2023-08-24T13:46:00;37.50;47.20
8043;DHT22;4064;48.132;11.366;2023-08-24T13:48:26;38.10;46.30
8043;DHT22;4064;48.132;11.366;2023-08-24T13:50:53;38.40;45.00
8043;DHT22;4064;48.132;11.366;2023-08-24T13:53:19;38.20;43.60
8043;DHT22;4064;48.132;11.366;2023-08-24T13:55:45;38.20;44.80
8043;DHT22;4064;48.132;11.366;2023-08-24T13:58:10;37.60;44.50
8043;DHT22;4064;48.132;11.366;2023-08-24T14:00:36;37.50;45.80
8043;DHT22;4064;48.132;11.366;2023-08-24T14:03:03;36.60;46.30
8043;DHT22;4064;48.132;11.366;2023-08-24T14:05:28;36.50;46.60
8043;DHT22;4064;48.132;11.366;2023-08-24T14:07:54;36.20;46.90
8043;DHT22;4064;48.132;11.366;2023-08-24T14:10:20;36.50;46.30
8043;DHT22;4064;48.132;11.366;2023-08-24T14:12:46;36.50;47.90
8043;DHT22;4064;48.132;11.366;2023-08-24T14:15:12;36.50;44.90
8043;DHT22;4064;48.132;11.366;2023-08-24T14:17:38;36.60;45.10
8043;DHT22;4064;48.132;11.366;2023-08-24T14:20:04;36.50;44.40
8043;DHT22;4064;48.132;11.366;2023-08-24T14:22:29;36.40;45.80
8043;DHT22;4064;48.132;11.366;2023-08-24T14:24:55;36.20;44.90
8043;DHT22;4064;48.132;11.366;2023-08-24T14:27:21;36.10;44.40
8043;DHT22;4064;48.132;11.366;2023-08-24T14:29:47;36.20;45.20
8043;DHT22;4064;48.132;11.366;2023-08-24T14:32:13;36.20;43.40
8043;DHT22;4064;48.132;11.366;2023-08-24T14:34:38;36.00;43.90
8043;DHT22;4064;48.132;11.366;2023-08-24T14:37:04;35.70;43.60
8043;DHT22;4064;48.132;11.366;2023-08-24T14:39:30;35.70;43.20
8043;DHT22;4064;48.132;11.366;2023-08-24T14:41:55;35.50;44.00
8043;DHT22;4064;48.132;11.366;2023-08-24T14:44:21;35.60;43.00
8043;DHT22;4064;48.132;11.366;2023-08-24T14:46:47;35.40;43.10
8043;DHT22;4064;48.132;11.366;2023-08-24T14:49:13;35.20;42.30
8043;DHT22;4064;48.132;11.366;2023-08-24T14:51:44;35.10;42.50
8043;DHT22;4064;48.132;11.366;2023-08-24T14:54:09;35.00;42.40
8043;DHT22;4064;48.132;11.366;2023-08-24T14:56:38;34.90;43.50
8043;DHT22;4064;48.132;11.366;2023-08-24T14:59:04;34.80;43.10
8043;DHT22;4064;48.132;11.366;2023-08-24T15:01:29;34.90;43.60
8043;DHT22;4064;48.132;11.366;2023-08-24T15:03:55;35.00;43.30
8043;DHT22;4064;48.132;11.366;2023-08-24T15:06:21;34.80;43.20
8043;DHT22;4064;48.132;11.366;2023-08-24T15:08:46;34.90;42.80
8043;DHT22;4064;48.132;11.366;2023-08-24T15:11:14;34.90;44.00
8043;DHT22;4064;48.132;11.366;2023-08-24T15:13:40;35.00;43.90
8043;DHT22;4064;48.132;11.366;2023-08-24T15:16:06;34.70;43.00
8043;DHT22;4064;48.132;11.366;2023-08-24T15:18:32;34.60;44.60
8043;DHT22;4064;48.132;11.366;2023-08-24T15:20:57;34.40;43.70
8043;DHT22;4064;48.132;11.366;2023-08-24T15:23:27;34.50;43.60
8043;DHT22;4064;48.132;11.366;2023-08-24T15:25:58;34.60;44.00
8043;DHT22;4064;48.132;11.366;2023-08-24T15:28:24;34.40;44.40
8043;DHT22;4064;48.132;11.366;2023-08-24T15:30:51;34.50;44.00
8043;DHT22;4064;48.132;11.366;2023-08-24T15:33:18;34.50;45.20
8043;DHT22;4064;48.132;11.366;2023-08-24T15:35:44;34.60;44.40
8043;DHT22;4064;48.132;11.366;2023-08-24T15:38:10;34.50;43.80
8043;DHT22;4064;48.132;11.366;2023-08-24T15:40:37;34.40;43.90
8043;DHT22;4064;48.132;11.366;2023-08-24T15:43:04;34.30;44.50
8043;DHT22;4064;48.132;11.366;2023-08-24T15:45:30;34.50;45.80
8043;DHT22;4064;48.132;11.366;2023-08-24T15:48:00;34.40;45.00
8043;DHT22;4064;48.132;11.366;2023-08-24T15:50:26;34.40;44.90
8043;DHT22;4064;48.132;11.366;2023-08-24T15:52:52;34.30;44.70
8043;DHT22;4064;48.132;11.366;2023-08-24T15:55:25;34.40;44.80
8043;DHT22;4064;48.132;11.366;2023-08-24T15:57:53;34.30;44.90
8043;DHT22;4064;48.132;11.366;2023-08-24T16:00:18;34.10;45.00
8043;DHT22;4064;48.132;11.366;2023-08-24T16:02:44;34.00;45.40
8043;DHT22;4064;48.132;11.366;2023-08-24T16:05:10;34.00;46.30
8043;DHT22;4064;48.132;11.366;2023-08-24T16:07:36;33.90;46.50
8043;DHT22;4064;48.132;11.366;2023-08-24T16:10:01;33.80;46.40
8043;DHT22;4064;48.132;11.366;2023-08-24T16:12:28;33.90;46.30
8043;DHT22;4064;48.132;11.366;2023-08-24T16:14:54;33.80;46.70